sensor_id;sensor_type;location;lat;lon;timestamp;P1;durP1;ratioP1;P2;durP2;ratioP2
14686;SDS011;7431;49.440;11.084;2023-02-26T00:00:07;24.27;;;19.23;;
14686;SDS011;7431;49.440;11.084;2023-02-26T00:02:38;29.55;;;19.88;;
14686;SDS011;7431;49.440;11.084;2023-02-26T00:05:05;27.02;;;19.40;;
14686;SDS011;7431;49.440;11.084;2023-02-26T00:07:31;25.02;;;19.73;;
14686;SDS011;7431;49.440;11.084;2023-02-26T00:09:56;24.90;;;19.13;;
14686;SDS011;7431;49.440;11.084;2023-02-26T00:12:22;24.40;;;19.35;;
14686;SDS011;7431;49.440;11.084;2023-02-26T00:14:48;25.83;;;18.88;;
14686;SDS011;7431;49.440;11.084;2023-02-26T00:17:20;26.63;;;19.45;;
14686;SDS011;7431;49.440;11.084;2023-02-26T00:19:55;25.58;;;18.67;;
14686;SDS011;7431;49.440;11.084;2023-02-26T00:22:21;22.95;;;17.65;;
14686;SDS011;7431;49.440;11.084;2023-02-26T00:24:47;25.38;;;18.27;;
14686;SDS011;7431;49.440;11.084;2023-02-26T00:27:12;22.20;;;17.48;;
14686;SDS011;7431;49.440;11.084;2023-02-26T00:29:38;23.35;;;17.55;;
14686;SDS011;7431;49.440;11.084;2023-02-26T00:32:04;22.98;;;17.42;;
14686;SDS011;7431;49.440;11.084;2023-02-26T00:34:30;21.40;;;16.33;;
14686;SDS011;7431;49.440;11.084;2023-02-26T00:40:02;24.45;;;16.92;;
14686;SDS011;7431;49.440;11.084;2023-02-26T00:42:56;21.35;;;16.33;;
14686;SDS011;7431;49.440;11.084;2023-02-26T00:45:21;20.77;;;16.70;;
14686;SDS011;7431;49.440;11.084;2023-02-26T00:47:51;22.85;;;16.83;;
14686;SDS011;7431;49.440;11.084;2023-02-26T00:50:46;21.10;;;15.85;;
14686;SDS011;7431;49.440;11.084;2023-02-26T00:55:47;20.77;;;16.02;;
14686;SDS011;7431;49.440;11.084;2023-02-26T00:58:13;20.00;;;15.63;;
14686;SDS011;7431;49.440;11.084;2023-02-26T01:00:38;21.85;;;16.08;;
14686;SDS011;7431;49.440;11.084;2023-02-26T01:03:04;22.52;;;16.00;;
14686;SDS011;7431;49.440;11.084;2023-02-26T01:05:30;20.08;;;15.25;;
14686;SDS011;7431;49.440;11.084;2023-02-26T01:08:13;21.55;;;15.68;;
14686;SDS011;7431;49.440;11.084;2023-02-26T01:10:43;19.70;;;15.32;;
14686;SDS011;7431;49.440;11.084;2023-02-26T01:13:09;19.52;;;15.25;;
14686;SDS011;7431;49.440;11.084;2023-02-26T01:15:36;19.38;;;14.93;;
14686;SDS011;7431;49.440;11.084;2023-02-26T01:20:37;21.20;;;15.00;;
14686;SDS011;7431;49.440;11.084;2023-02-26T01:23:10;20.05;;;15.45;;
14686;SDS011;7431;49.440;11.084;2023-02-26T01:25:56;20.23;;;15.93;;
14686;SDS011;7431;49.440;11.084;2023-02-26T01:28:24;19.27;;;15.40;;
14686;SDS011;7431;49.440;11.084;2023-02-26T01:30:51;20.70;;;16.15;;
14686;SDS011;7431;49.440;11.084;2023-02-26T01:35:52;21.08;;;16.17;;
14686;SDS011;7431;49.440;11.084;2023-02-26T01:38:27;21.73;;;15.88;;
14686;SDS011;7431;49.440;11.084;2023-02-26T01:41:21;20.33;;;15.75;;
14686;SDS011;7431;49.440;11.084;2023-02-26T01:43:59;23.30;;;16.98;;
14686;SDS011;7431;49.440;11.084;2023-02-26T01:46:56;21.13;;;16.17;;
14686;SDS011;7431;49.440;11.084;2023-02-26T01:49:28;20.90;;;16.35;;
14686;SDS011;7431;49.440;11.084;2023-02-26T01:51:58;20.88;;;16.58;;
14686;SDS011;7431;49.440;11.084;2023-02-26T01:54:26;21.58;;;16.63;;
14686;SDS011;7431;49.440;11.084;2023-02-26T01:57:07;21.27;;;17.00;;
14686;SDS011;7431;49.440;11.084;2023-02-26T01:59:36;22.50;;;17.67;;
14686;SDS011;7431;49.440;11.084;2023-02-26T02:02:05;24.80;;;17.63;;
14686;SDS011;7431;49.440;11.084;2023-02-26T02:04:33;20.60;;;16.40;;
14686;SDS011;7431;49.440;11.084;2023-02-26T02:07:00;23.13;;;16.90;;
14686;SDS011;7431;49.440;11.084;2023-02-26T02:09:26;21.75;;;16.70;;
14686;SDS011;7431;49.440;11.084;2023-02-26T02:11:58;23.00;;;17.25;;
14686;SDS011;7431;49.440;11.084;2023-02-26T02:14:35;21.63;;;17.08;;
14686;SDS011;7431;49.440;11.084;2023-02-26T02:17:08;22.45;;;16.20;;
14686;SDS011;7431;49.440;11.084;2023-02-26T02:22:39;23.67;;;18.17;;
14686;SDS011;7431;49.440;11.084;2023-02-26T02:28:32;26.27;;;19.45;;
14686;SDS011;7431;49.440;11.084;2023-02-26T02:33:58;25.10;;;18.42;;
14686;SDS011;7431;49.440;11.084;2023-02-26T02:39:15;25.55;;;19.77;;
14686;SDS011;7431;49.440;11.084;2023-02-26T02:41:51;25.65;;;19.15;;
14686;SDS011;7431;49.440;11.084;2023-02-26T02:44:23;24.05;;;18.67;;
14686;SDS011;7431;49.440;11.084;2023-02-26T02:46:53;26.40;;;19.63;;
14686;SDS011;7431;49.440;11.084;2023-02-26T02:49:23;24.60;;;19.05;;
14686;SDS011;7431;49.440;11.084;2023-02-26T02:52:18;25.95;;;19.77;;
14686;SDS011;7431;49.440;11.084;2023-02-26T02:55:02;25.45;;;18.60;;
14686;SDS011;7431;49.440;11.084;2023-02-26T02:57:38;26.30;;;19.48;;
14686;SDS011;7431;49.440;11.084;2023-02-26T03:00:10;27.67;;;20.20;;
14686;SDS011;7431;49.440;11.084;2023-02-26T03:05:27;26.67;;;20.08;;
14686;SDS011;7431;49.440;11.084;2023-02-26T03:07:54;26.52;;;20.13;;
14686;SDS011;7431;49.440;11.084;2023-02-26T03:10:24;25.83;;;20.90;;
14686;SDS011;7431;49.440;11.084;2023-02-26T03:12:50;28.08;;;21.15;;
14686;SDS011;7431;49.440;11.084;2023-02-26T03:15:15;28.08;;;20.80;;
14686;SDS011;7431;49.440;11.084;2023-02-26T03:17:53;27.73;;;20.58;;
14686;SDS011;7431;49.440;11.084;2023-02-26T03:20:33;27.95;;;21.27;;
14686;SDS011;7431;49.440;11.084;2023-02-26T03:25:30;27.92;;;21.40;;
14686;SDS011;7431;49.440;11.084;2023-02-26T03:28:17;28.73;;;21.50;;
14686;SDS011;7431;49.440;11.084;2023-02-26T03:30:47;27.35;;;21.67;;
14686;SDS011;7431;49.440;11.084;2023-02-26T03:36:17;29.15;;;21.63;;
14686;SDS011;7431;49.440;11.084;2023-02-26T03:39:00;28.05;;;22.17;;
14686;SDS011;7431;49.440;11.084;2023-02-26T03:41:32;26.98;;;20.50;;
14686;SDS011;7431;49.440;11.084;2023-02-26T03:44:05;26.98;;;20.70;;
14686;SDS011;7431;49.440;11.084;2023-02-26T03:46:35;28.05;;;20.98;;
14686;SDS011;7431;49.440;11.084;2023-02-26T03:49:06;29.08;;;21.65;;
14686;SDS011;7431;49.440;11.084;2023-02-26T03:51:36;30.42;;;22.25;;
14686;SDS011;7431;49.440;11.084;2023-02-26T03:54:06;30.02;;;22.40;;
14686;SDS011;7431;49.440;11.084;2023-02-26T03:56:43;29.23;;;21.88;;
14686;SDS011;7431;49.440;11.084;2023-02-26T03:59:11;29.60;;;21.50;;
14686;SDS011;7431;49.440;11.084;2023-02-26T04:01:40;31.38;;;22.90;;
14686;SDS011;7431;49.440;11.084;2023-02-26T04:04:30;30.80;;;22.85;;
14686;SDS011;7431;49.440;11.084;2023-02-26T04:07:17;29.20;;;22.00;;
14686;SDS011;7431;49.440;11.084;2023-02-26T04:09:44;30.08;;;22.55;;
14686;SDS011;7431;49.440;11.084;2023-02-26T04:12:11;31.05;;;22.20;;
14686;SDS011;7431;49.440;11.084;2023-02-26T04:14:37;30.90;;;22.85;;
14686;SDS011;7431;49.440;11.084;2023-02-26T04:17:03;28.88;;;21.85;;
14686;SDS011;7431;49.440;11.084;2023-02-26T04:19:28;30.15;;;21.90;;
14686;SDS011;7431;49.440;11.084;2023-02-26T04:21:54;28.20;;;21.52;;
14686;SDS011;7431;49.440;11.084;2023-02-26T04:24:20;28.67;;;21.88;;
14686;SDS011;7431;49.440;11.084;2023-02-26T04:26:45;30.83;;;22.80;;
14686;SDS011;7431;49.440;11.084;2023-02-26T04:29:11;29.33;;;22.67;;
14686;SDS011;7431;49.440;11.084;2023-02-26T04:31:36;29.95;;;23.08;;
14686;SDS011;7431;49.440;11.084;2023-02-26T04:34:02;29.20;;;22.27;;
14686;SDS011;7431;49.440;11.084;2023-02-26T04:36:27;30.27;;;22.45;;
14686;SDS011;7431;49.440;11.084;2023-02-26T04:38:53;31.42;;;22.95;;
14686;SDS011;7431;49.440;11.084;2023-02-26T04:41:19;29.35;;;22.02;;
14686;SDS011;7431;49.440;11.084;2023-02-26T04:43:45;29.40;;;22.42;;
14686;SDS011;7431;49.440;11.084;2023-02-26T04:46:10;28.40;;;21.50;;
14686;SDS011;7431;49.440;11.084;2023-02-26T04:48:36;29.80;;;21.95;;
14686;SDS011;7431;49.440;11.084;2023-02-26T04:51:02;26.23;;;20.65;;
14686;SDS011;7431;49.440;11.084;2023-02-26T04:53:27;28.05;;;21.77;;
14686;SDS011;7431;49.440;11.084;2023-02-26T04:55:53;29.02;;;22.15;;
14686;SDS011;7431;49.440;11.084;2023-02-26T04:58:18;30.73;;;22.42;;
14686;SDS011;7431;49.440;11.084;2023-02-26T05:00:47;29.38;;;22.10;;
14686;SDS011;7431;49.440;11.084;2023-02-26T05:03:13;28.98;;;21.25;;
14686;SDS011;7431;49.440;11.084;2023-02-26T05:05:39;29.52;;;21.65;;
14686;SDS011;7431;49.440;11.084;2023-02-26T05:08:05;27.55;;;20.67;;
14686;SDS011;7431;49.440;11.084;2023-02-26T05:10:30;27.00;;;20.63;;
14686;SDS011;7431;49.440;11.084;2023-02-26T05:12:56;28.50;;;20.73;;
14686;SDS011;7431;49.440;11.084;2023-02-26T05:15:21;27.35;;;20.75;;
14686;SDS011;7431;49.440;11.084;2023-02-26T05:17:47;27.25;;;20.60;;
14686;SDS011;7431;49.440;11.084;2023-02-26T05:20:13;27.40;;;20.23;;
14686;SDS011;7431;49.440;11.084;2023-02-26T05:22:39;24.85;;;20.67;;
14686;SDS011;7431;49.440;11.084;2023-02-26T05:25:05;25.55;;;20.17;;
14686;SDS011;7431;49.440;11.084;2023-02-26T05:27:31;26.88;;;21.15;;
14686;SDS011;7431;49.440;11.084;2023-02-26T05:29:57;24.50;;;19.48;;
14686;SDS011;7431;49.440;11.084;2023-02-26T05:32:23;25.48;;;19.27;;
14686;SDS011;7431;49.440;11.084;2023-02-26T05:34:48;25.70;;;19.60;;
14686;SDS011;7431;49.440;11.084;2023-02-26T05:37:14;26.98;;;19.85;;
14686;SDS011;7431;49.440;11.084;2023-02-26T05:39:39;24.45;;;18.60;;
14686;SDS011;7431;49.440;11.084;2023-02-26T05:42:05;25.52;;;19.80;;
14686;SDS011;7431;49.440;11.084;2023-02-26T05:44:31;25.30;;;19.35;;
14686;SDS011;7431;49.440;11.084;2023-02-26T05:46:57;24.02;;;19.13;;
14686;SDS011;7431;49.440;11.084;2023-02-26T05:49:23;26.55;;;19.20;;
14686;SDS011;7431;49.440;11.084;2023-02-26T05:51:48;25.25;;;19.20;;
14686;SDS011;7431;49.440;11.084;2023-02-26T05:54:14;23.70;;;18.95;;
14686;SDS011;7431;49.440;11.084;2023-02-26T05:56:39;25.65;;;19.05;;
14686;SDS011;7431;49.440;11.084;2023-02-26T05:59:05;25.05;;;17.88;;
14686;SDS011;7431;49.440;11.084;2023-02-26T06:01:31;23.88;;;18.25;;
14686;SDS011;7431;49.440;11.084;2023-02-26T06:03:56;23.80;;;18.58;;
14686;SDS011;7431;49.440;11.084;2023-02-26T06:06:22;26.45;;;18.98;;
14686;SDS011;7431;49.440;11.084;2023-02-26T06:08:49;24.63;;;18.13;;
14686;SDS011;7431;49.440;11.084;2023-02-26T06:11:14;24.20;;;18.58;;
14686;SDS011;7431;49.440;11.084;2023-02-26T06:13:40;27.15;;;18.75;;
14686;SDS011;7431;49.440;11.084;2023-02-26T06:16:06;23.17;;;18.08;;
14686;SDS011;7431;49.440;11.084;2023-02-26T06:18:31;21.88;;;17.65;;
14686;SDS011;7431;49.440;11.084;2023-02-26T06:20:58;22.75;;;17.27;;
14686;SDS011;7431;49.440;11.084;2023-02-26T06:23:24;22.58;;;17.67;;
14686;SDS011;7431;49.440;11.084;2023-02-26T06:25:50;23.02;;;17.35;;
14686;SDS011;7431;49.440;11.084;2023-02-26T06:28:16;23.45;;;17.40;;
14686;SDS011;7431;49.440;11.084;2023-02-26T06:30:42;22.00;;;16.73;;
14686;SDS011;7431;49.440;11.084;2023-02-26T06:33:08;22.67;;;17.38;;
14686;SDS011;7431;49.440;11.084;2023-02-26T06:35:34;21.25;;;16.70;;
14686;SDS011;7431;49.440;11.084;2023-02-26T06:37:59;20.25;;;16.73;;
14686;SDS011;7431;49.440;11.084;2023-02-26T06:40:25;22.05;;;17.25;;
14686;SDS011;7431;49.440;11.084;2023-02-26T06:42:50;21.17;;;16.05;;
14686;SDS011;7431;49.440;11.084;2023-02-26T06:45:16;22.70;;;17.30;;
14686;SDS011;7431;49.440;11.084;2023-02-26T06:47:41;22.88;;;16.98;;
14686;SDS011;7431;49.440;11.084;2023-02-26T06:50:07;20.92;;;16.10;;
14686;SDS011;7431;49.440;11.084;2023-02-26T06:52:34;21.52;;;16.73;;
14686;SDS011;7431;49.440;11.084;2023-02-26T06:55:00;20.90;;;15.55;;
14686;SDS011;7431;49.440;11.084;2023-02-26T06:57:26;21.00;;;16.33;;
14686;SDS011;7431;49.440;11.084;2023-02-26T06:59:52;21.55;;;15.73;;
14686;SDS011;7431;49.440;11.084;2023-02-26T07:02:18;20.88;;;15.70;;
14686;SDS011;7431;49.440;11.084;2023-02-26T07:04:46;19.33;;;15.23;;
14686;SDS011;7431;49.440;11.084;2023-02-26T07:07:11;19.52;;;15.30;;
14686;SDS011;7431;49.440;11.084;2023-02-26T07:09:37;19.67;;;14.43;;
14686;SDS011;7431;49.440;11.084;2023-02-26T07:12:03;19.98;;;15.65;;
14686;SDS011;7431;49.440;11.084;2023-02-26T07:14:31;19.48;;;15.15;;
14686;SDS011;7431;49.440;11.084;2023-02-26T07:16:57;19.25;;;14.65;;
14686;SDS011;7431;49.440;11.084;2023-02-26T07:19:22;21.90;;;15.10;;
14686;SDS011;7431;49.440;11.084;2023-02-26T07:21:48;19.25;;;15.05;;
14686;SDS011;7431;49.440;11.084;2023-02-26T07:24:13;19.92;;;15.05;;
14686;SDS011;7431;49.440;11.084;2023-02-26T07:26:39;20.52;;;14.88;;
14686;SDS011;7431;49.440;11.084;2023-02-26T07:29:04;19.75;;;14.35;;
14686;SDS011;7431;49.440;11.084;2023-02-26T07:31:30;20.35;;;14.48;;
14686;SDS011;7431;49.440;11.084;2023-02-26T07:33:56;19.67;;;14.45;;
14686;SDS011;7431;49.440;11.084;2023-02-26T07:36:22;17.30;;;13.35;;
14686;SDS011;7431;49.440;11.084;2023-02-26T07:38:47;18.25;;;13.30;;
14686;SDS011;7431;49.440;11.084;2023-02-26T07:41:13;18.55;;;14.18;;
14686;SDS011;7431;49.440;11.084;2023-02-26T07:43:38;18.83;;;14.05;;
14686;SDS011;7431;49.440;11.084;2023-02-26T07:46:04;18.35;;;13.50;;
14686;SDS011;7431;49.440;11.084;2023-02-26T07:48:29;18.10;;;13.95;;
14686;SDS011;7431;49.440;11.084;2023-02-26T07:50:55;18.92;;;13.70;;
14686;SDS011;7431;49.440;11.084;2023-02-26T07:53:21;17.05;;;12.70;;
14686;SDS011;7431;49.440;11.084;2023-02-26T07:55:47;18.48;;;13.57;;
14686;SDS011;7431;49.440;11.084;2023-02-26T07:58:13;17.70;;;13.30;;
14686;SDS011;7431;49.440;11.084;2023-02-26T08:00:38;17.92;;;12.70;;
14686;SDS011;7431;49.440;11.084;2023-02-26T08:03:04;17.42;;;12.55;;
14686;SDS011;7431;49.440;11.084;2023-02-26T08:05:29;15.00;;;12.27;;
14686;SDS011;7431;49.440;11.084;2023-02-26T08:07:55;18.42;;;13.07;;
14686;SDS011;7431;49.440;11.084;2023-02-26T08:10:21;17.80;;;13.48;;
14686;SDS011;7431;49.440;11.084;2023-02-26T08:12:46;16.60;;;12.77;;
14686;SDS011;7431;49.440;11.084;2023-02-26T08:15:12;17.23;;;12.35;;
14686;SDS011;7431;49.440;11.084;2023-02-26T08:17:38;16.90;;;12.52;;
14686;SDS011;7431;49.440;11.084;2023-02-26T08:20:05;16.45;;;12.23;;
14686;SDS011;7431;49.440;11.084;2023-02-26T08:22:31;15.65;;;12.23;;
14686;SDS011;7431;49.440;11.084;2023-02-26T08:24:57;13.98;;;11.18;;
14686;SDS011;7431;49.440;11.084;2023-02-26T08:27:22;15.38;;;11.70;;
14686;SDS011;7431;49.440;11.084;2023-02-26T08:29:48;15.45;;;11.48;;
14686;SDS011;7431;49.440;11.084;2023-02-26T08:32:14;15.52;;;12.05;;
14686;SDS011;7431;49.440;11.084;2023-02-26T08:34:41;14.82;;;11.23;;
14686;SDS011;7431;49.440;11.084;2023-02-26T08:37:07;14.80;;;11.35;;
14686;SDS011;7431;49.440;11.084;2023-02-26T08:39:35;14.77;;;10.93;;
14686;SDS011;7431;49.440;11.084;2023-02-26T08:42:02;13.80;;;10.45;;
14686;SDS011;7431;49.440;11.084;2023-02-26T08:44:29;14.73;;;10.55;;
14686;SDS011;7431;49.440;11.084;2023-02-26T08:46:55;15.20;;;11.32;;
14686;SDS011;7431;49.440;11.084;2023-02-26T08:49:21;14.40;;;11.05;;
14686;SDS011;7431;49.440;11.084;2023-02-26T08:51:46;13.70;;;10.70;;
14686;SDS011;7431;49.440;11.084;2023-02-26T08:54:12;13.93;;;10.80;;
14686;SDS011;7431;49.440;11.084;2023-02-26T08:56:38;13.95;;;10.55;;
14686;SDS011;7431;49.440;11.084;2023-02-26T08:59:04;14.00;;;10.48;;
14686;SDS011;7431;49.440;11.084;2023-02-26T09:01:29;13.45;;;10.07;;
14686;SDS011;7431;49.440;11.084;2023-02-26T09:03:55;13.50;;;10.15;;
14686;SDS011;7431;49.440;11.084;2023-02-26T09:06:20;13.68;;;10.38;;
14686;SDS011;7431;49.440;11.084;2023-02-26T09:08:46;14.95;;;10.82;;
14686;SDS011;7431;49.440;11.084;2023-02-26T09:11:11;12.68;;;9.60;;
14686;SDS011;7431;49.440;11.084;2023-02-26T09:13:37;12.30;;;9.20;;
14686;SDS011;7431;49.440;11.084;2023-02-26T09:16:03;12.85;;;9.98;;
14686;SDS011;7431;49.440;11.084;2023-02-26T09:18:29;12.73;;;9.95;;
14686;SDS011;7431;49.440;11.084;2023-02-26T09:20:54;13.38;;;9.55;;
14686;SDS011;7431;49.440;11.084;2023-02-26T09:23:20;13.05;;;9.10;;
14686;SDS011;7431;49.440;11.084;2023-02-26T09:25:45;13.18;;;9.27;;
14686;SDS011;7431;49.440;11.084;2023-02-26T09:28:17;12.05;;;8.80;;
14686;SDS011;7431;49.440;11.084;2023-02-26T09:30:43;12.52;;;9.57;;
14686;SDS011;7431;49.440;11.084;2023-02-26T09:33:08;11.45;;;9.02;;
14686;SDS011;7431;49.440;11.084;2023-02-26T09:35:34;12.38;;;9.32;;
14686;SDS011;7431;49.440;11.084;2023-02-26T09:38:00;12.10;;;9.77;;
14686;SDS011;7431;49.440;11.084;2023-02-26T09:43:19;12.52;;;8.70;;
14686;SDS011;7431;49.440;11.084;2023-02-26T09:45:57;10.82;;;8.32;;
14686;SDS011;7431;49.440;11.084;2023-02-26T09:48:28;11.98;;;8.57;;
14686;SDS011;7431;49.440;11.084;2023-02-26T09:50:55;13.20;;;9.38;;
14686;SDS011;7431;49.440;11.084;2023-02-26T09:53:29;11.85;;;8.55;;
14686;SDS011;7431;49.440;11.084;2023-02-26T09:56:06;11.40;;;8.18;;
14686;SDS011;7431;49.440;11.084;2023-02-26T09:58:38;9.93;;;8.05;;
14686;SDS011;7431;49.440;11.084;2023-02-26T10:01:19;11.90;;;8.80;;
14686;SDS011;7431;49.440;11.084;2023-02-26T10:12:25;11.73;;;7.90;;
14686;SDS011;7431;49.440;11.084;2023-02-26T10:15:10;10.68;;;8.02;;
14686;SDS011;7431;49.440;11.084;2023-02-26T10:20:38;10.43;;;7.60;;
14686;SDS011;7431;49.440;11.084;2023-02-26T10:23:15;9.15;;;7.70;;
14686;SDS011;7431;49.440;11.084;2023-02-26T10:25:53;7.40;;;4.70;;
14686;SDS011;7431;49.440;11.084;2023-02-26T10:39:34;6.03;;;4.30;;
14686;SDS011;7431;49.440;11.084;2023-02-26T10:42:23;6.30;;;4.40;;
14686;SDS011;7431;49.440;11.084;2023-02-26T10:47:38;6.13;;;4.40;;
14686;SDS011;7431;49.440;11.084;2023-02-26T10:50:14;5.18;;;4.20;;
14686;SDS011;7431;49.440;11.084;2023-02-26T10:52:42;5.07;;;3.90;;
14686;SDS011;7431;49.440;11.084;2023-02-26T10:55:27;5.03;;;3.80;;
14686;SDS011;7431;49.440;11.084;2023-02-26T10:58:11;6.20;;;4.13;;
14686;SDS011;7431;49.440;11.084;2023-02-26T11:00:38;4.80;;;3.38;;
14686;SDS011;7431;49.440;11.084;2023-02-26T11:03:06;4.15;;;3.42;;
14686;SDS011;7431;49.440;11.084;2023-02-26T11:05:34;5.85;;;3.47;;
14686;SDS011;7431;49.440;11.084;2023-02-26T11:08:01;6.88;;;3.78;;
14686;SDS011;7431;49.440;11.084;2023-02-26T11:10:38;5.55;;;3.88;;
14686;SDS011;7431;49.440;11.084;2023-02-26T11:13:11;4.45;;;3.35;;
14686;SDS011;7431;49.440;11.084;2023-02-26T11:15:37;4.65;;;3.08;;
14686;SDS011;7431;49.440;11.084;2023-02-26T11:18:03;4.70;;;3.58;;
14686;SDS011;7431;49.440;11.084;2023-02-26T11:20:36;6.05;;;3.58;;
14686;SDS011;7431;49.440;11.084;2023-02-26T11:23:05;5.80;;;3.42;;
14686;SDS011;7431;49.440;11.084;2023-02-26T11:25:37;5.65;;;4.15;;
14686;SDS011;7431;49.440;11.084;2023-02-26T11:28:17;4.75;;;3.60;;
14686;SDS011;7431;49.440;11.084;2023-02-26T11:30:46;4.25;;;3.03;;
14686;SDS011;7431;49.440;11.084;2023-02-26T11:33:23;5.72;;;3.83;;
14686;SDS011;7431;49.440;11.084;2023-02-26T11:35:53;5.43;;;3.38;;
14686;SDS011;7431;49.440;11.084;2023-02-26T11:38:24;4.28;;;3.45;;
14686;SDS011;7431;49.440;11.084;2023-02-26T11:40:53;6.18;;;3.78;;
14686;SDS011;7431;49.440;11.084;2023-02-26T11:43:21;5.57;;;3.35;;
14686;SDS011;7431;49.440;11.084;2023-02-26T11:45:59;4.95;;;2.90;;
14686;SDS011;7431;49.440;11.084;2023-02-26T11:48:28;4.32;;;3.10;;
14686;SDS011;7431;49.440;11.084;2023-02-26T11:50:58;6.35;;;3.10;;
14686;SDS011;7431;49.440;11.084;2023-02-26T11:53:29;6.82;;;3.97;;
14686;SDS011;7431;49.440;11.084;2023-02-26T11:56:01;8.25;;;3.80;;
14686;SDS011;7431;49.440;11.084;2023-02-26T11:58:34;8.32;;;4.50;;
14686;SDS011;7431;49.440;11.084;2023-02-26T12:01:01;10.23;;;4.90;;
14686;SDS011;7431;49.440;11.084;2023-02-26T12:03:31;7.47;;;4.95;;
14686;SDS011;7431;49.440;11.084;2023-02-26T12:05:58;9.88;;;4.43;;
14686;SDS011;7431;49.440;11.084;2023-02-26T12:08:30;8.18;;;4.68;;
14686;SDS011;7431;49.440;11.084;2023-02-26T12:31:02;12.75;;;6.60;;
14686;SDS011;7431;49.440;11.084;2023-02-26T12:48:07;12.35;;;6.22;;
14686;SDS011;7431;49.440;11.084;2023-02-26T12:53:48;17.50;;;6.63;;
14686;SDS011;7431;49.440;11.084;2023-02-26T12:56:41;15.07;;;5.78;;
14686;SDS011;7431;49.440;11.084;2023-02-26T12:59:28;13.35;;;7.03;;
14686;SDS011;7431;49.440;11.084;2023-02-26T13:15:51;19.77;;;7.32;;
14686;SDS011;7431;49.440;11.084;2023-02-26T13:18:41;16.48;;;7.15;;
14686;SDS011;7431;49.440;11.084;2023-02-26T13:21:36;15.88;;;7.78;;
14686;SDS011;7431;49.440;11.084;2023-02-26T13:24:11;14.73;;;7.03;;
14686;SDS011;7431;49.440;11.084;2023-02-26T13:26:42;15.57;;;7.38;;
14686;SDS011;7431;49.440;11.084;2023-02-26T13:29:14;13.23;;;6.78;;
14686;SDS011;7431;49.440;11.084;2023-02-26T13:31:51;15.50;;;6.90;;
14686;SDS011;7431;49.440;11.084;2023-02-26T13:34:40;18.08;;;7.57;;
14686;SDS011;7431;49.440;11.084;2023-02-26T13:37:37;15.10;;;7.55;;
14686;SDS011;7431;49.440;11.084;2023-02-26T13:46:03;16.10;;;7.18;;
14686;SDS011;7431;49.440;11.084;2023-02-26T14:07:44;14.32;;;6.97;;
14686;SDS011;7431;49.440;11.084;2023-02-26T14:19:35;13.43;;;7.30;;
14686;SDS011;7431;49.440;11.084;2023-02-26T14:32:31;14.20;;;8.05;;
14686;SDS011;7431;49.440;11.084;2023-02-26T14:35:14;14.00;;;8.55;;
14686;SDS011;7431;49.440;11.084;2023-02-26T14:37:48;14.13;;;8.50;;
14686;SDS011;7431;49.440;11.084;2023-02-26T14:41:03;13.00;;;8.10;;
14686;SDS011;7431;49.440;11.084;2023-02-26T14:43:37;16.30;;;8.93;;
14686;SDS011;7431;49.440;11.084;2023-02-26T14:46:08;14.43;;;9.07;;
14686;SDS011;7431;49.440;11.084;2023-02-26T14:48:35;16.17;;;9.48;;
14686;SDS011;7431;49.440;11.084;2023-02-26T14:51:18;15.95;;;9.40;;
14686;SDS011;7431;49.440;11.084;2023-02-26T14:54:47;15.82;;;9.73;;
14686;SDS011;7431;49.440;11.084;2023-02-26T14:59:37;15.95;;;9.88;;
14686;SDS011;7431;49.440;11.084;2023-02-26T15:08:07;15.15;;;9.70;;
14686;SDS011;7431;49.440;11.084;2023-02-26T15:11:03;15.18;;;9.70;;
14686;SDS011;7431;49.440;11.084;2023-02-26T15:13:34;17.40;;;10.82;;
14686;SDS011;7431;49.440;11.084;2023-02-26T15:24:13;16.73;;;10.75;;
14686;SDS011;7431;49.440;11.084;2023-02-26T15:26:48;16.88;;;10.65;;
14686;SDS011;7431;49.440;11.084;2023-02-26T15:29:18;16.83;;;11.73;;
14686;SDS011;7431;49.440;11.084;2023-02-26T15:31:54;18.08;;;11.23;;
14686;SDS011;7431;49.440;11.084;2023-02-26T15:34:21;15.13;;;10.93;;
14686;SDS011;7431;49.440;11.084;2023-02-26T15:36:48;17.40;;;11.75;;
14686;SDS011;7431;49.440;11.084;2023-02-26T15:39:16;17.55;;;11.55;;
14686;SDS011;7431;49.440;11.084;2023-02-26T15:41:42;17.25;;;12.15;;
14686;SDS011;7431;49.440;11.084;2023-02-26T15:44:13;18.88;;;12.52;;
14686;SDS011;7431;49.440;11.084;2023-02-26T15:47:05;16.85;;;11.63;;
14686;SDS011;7431;49.440;11.084;2023-02-26T15:52:02;18.35;;;12.90;;
14686;SDS011;7431;49.440;11.084;2023-02-26T15:54:34;18.95;;;12.30;;
14686;SDS011;7431;49.440;11.084;2023-02-26T15:57:06;20.38;;;13.95;;
14686;SDS011;7431;49.440;11.084;2023-02-26T15:59:34;21.75;;;13.80;;
14686;SDS011;7431;49.440;11.084;2023-02-26T16:02:16;20.05;;;13.68;;
14686;SDS011;7431;49.440;11.084;2023-02-26T16:04:45;20.83;;;14.52;;
14686;SDS011;7431;49.440;11.084;2023-02-26T16:07:11;19.10;;;14.18;;
14686;SDS011;7431;49.440;11.084;2023-02-26T16:09:38;20.88;;;14.23;;
14686;SDS011;7431;49.440;11.084;2023-02-26T16:12:09;21.92;;;14.40;;
14686;SDS011;7431;49.440;11.084;2023-02-26T16:14:46;22.02;;;14.30;;
14686;SDS011;7431;49.440;11.084;2023-02-26T16:17:23;22.38;;;14.70;;
14686;SDS011;7431;49.440;11.084;2023-02-26T16:19:50;22.98;;;14.73;;
14686;SDS011;7431;49.440;11.084;2023-02-26T16:22:23;20.17;;;14.32;;
14686;SDS011;7431;49.440;11.084;2023-02-26T16:25:03;20.67;;;14.43;;
14686;SDS011;7431;49.440;11.084;2023-02-26T16:27:39;22.38;;;14.52;;
14686;SDS011;7431;49.440;11.084;2023-02-26T16:30:07;20.63;;;13.95;;
14686;SDS011;7431;49.440;11.084;2023-02-26T16:32:40;22.08;;;15.13;;
14686;SDS011;7431;49.440;11.084;2023-02-26T16:35:08;20.23;;;15.00;;
14686;SDS011;7431;49.440;11.084;2023-02-26T16:37:44;23.30;;;14.40;;
14686;SDS011;7431;49.440;11.084;2023-02-26T16:43:28;22.05;;;15.10;;
14686;SDS011;7431;49.440;11.084;2023-02-26T16:46:01;22.35;;;14.80;;
14686;SDS011;7431;49.440;11.084;2023-02-26T16:48:30;21.25;;;15.02;;
14686;SDS011;7431;49.440;11.084;2023-02-26T16:51:05;19.65;;;14.82;;
14686;SDS011;7431;49.440;11.084;2023-02-26T16:53:39;20.85;;;14.82;;
14686;SDS011;7431;49.440;11.084;2023-02-26T16:56:09;23.17;;;14.98;;
14686;SDS011;7431;49.440;11.084;2023-02-26T16:58:41;20.80;;;14.82;;
14686;SDS011;7431;49.440;11.084;2023-02-26T17:01:13;20.88;;;14.88;;
14686;SDS011;7431;49.440;11.084;2023-02-26T17:03:41;19.80;;;14.50;;
14686;SDS011;7431;49.440;11.084;2023-02-26T17:06:14;21.60;;;14.98;;
14686;SDS011;7431;49.440;11.084;2023-02-26T17:11:28;19.63;;;14.13;;
14686;SDS011;7431;49.440;11.084;2023-02-26T17:14:12;21.40;;;14.80;;
14686;SDS011;7431;49.440;11.084;2023-02-26T17:16:51;20.15;;;14.68;;
14686;SDS011;7431;49.440;11.084;2023-02-26T17:19:17;19.80;;;14.43;;
14686;SDS011;7431;49.440;11.084;2023-02-26T17:21:44;20.48;;;14.38;;
14686;SDS011;7431;49.440;11.084;2023-02-26T17:24:21;21.90;;;14.48;;
14686;SDS011;7431;49.440;11.084;2023-02-26T17:26:58;21.73;;;15.15;;
14686;SDS011;7431;49.440;11.084;2023-02-26T17:29:30;19.65;;;14.73;;
14686;SDS011;7431;49.440;11.084;2023-02-26T17:32:02;20.48;;;14.80;;
14686;SDS011;7431;49.440;11.084;2023-02-26T17:34:36;20.30;;;14.40;;
14686;SDS011;7431;49.440;11.084;2023-02-26T17:37:02;20.08;;;14.35;;
14686;SDS011;7431;49.440;11.084;2023-02-26T17:39:31;18.65;;;13.88;;
14686;SDS011;7431;49.440;11.084;2023-02-26T17:41:57;20.75;;;14.38;;
14686;SDS011;7431;49.440;11.084;2023-02-26T17:44:23;19.77;;;13.98;;